createdAt,value
2023-04-11T00:01:41.133Z,11.70
2023-04-11T00:06:43.981Z,11.70
2023-04-11T00:11:47.993Z,11.60
2023-04-11T00:16:53.545Z,11.60
2023-04-11T00:21:58.366Z,11.50
2023-04-11T00:27:02.399Z,11.50
2023-04-11T00:32:05.544Z,11.50
2023-04-11T00:37:08.328Z,11.50
2023-04-11T00:42:12.762Z,11.50
2023-04-11T00:47:15.794Z,11.50
2023-04-11T00:52:19.380Z,11.40
2023-04-11T00:57:25.943Z,11.40
2023-04-11T01:02:29.634Z,11.40
2023-04-11T01:07:33.834Z,11.40
2023-04-11T01:12:39.113Z,11.50
2023-04-11T01:17:42.487Z,11.50
2023-04-11T01:22:45.644Z,11.50
2023-04-11T01:27:49.861Z,11.50
2023-04-11T01:32:52.631Z,11.60
2023-04-11T01:37:55.553Z,11.50
2023-04-11T01:43:01.824Z,11.50
2023-04-11T01:48:08.315Z,11.50
2023-04-11T01:53:11.175Z,11.50
2023-04-11T01:58:15.268Z,11.40
2023-04-11T02:03:20.937Z,11.30
2023-04-11T02:08:23.857Z,11.20
2023-04-11T02:13:27.961Z,11.20
2023-04-11T02:18:30.661Z,11.20
2023-04-11T02:23:34.891Z,11.20
2023-04-11T02:28:39.026Z,11.20
2023-04-11T02:33:41.667Z,11.20
2023-04-11T02:38:44.299Z,11.30
2023-04-11T02:43:48.267Z,11.40
2023-04-11T02:48:50.960Z,11.40
2023-04-11T02:53:53.703Z,11.50
2023-04-11T02:58:58.110Z,11.50
2023-04-11T03:04:01.399Z,11.50
2023-04-11T03:09:04.851Z,11.60
2023-04-11T03:14:08.893Z,11.60
2023-04-11T03:19:11.540Z,11.60
2023-04-11T03:24:14.189Z,11.60
2023-04-11T03:29:18.221Z,11.60
2023-04-11T03:34:21.865Z,11.60
2023-04-11T03:39:24.688Z,11.60
2023-04-11T03:44:28.723Z,11.60
2023-04-11T03:49:31.360Z,11.50
2023-04-11T03:54:34.297Z,11.40
2023-04-11T03:59:38.414Z,11.30
2023-04-11T04:04:43.452Z,11.30
2023-04-11T04:09:46.306Z,11.20
2023-04-11T04:14:50.545Z,11.20
2023-04-11T04:19:53.213Z,11.10
2023-04-11T04:24:58.106Z,11.10
2023-04-11T04:30:03.994Z,10.90
2023-04-11T04:35:07.978Z,10.80
2023-04-11T04:40:13.308Z,10.80
2023-04-11T04:45:17.400Z,10.90
2023-04-11T04:50:20.476Z,10.80
2023-04-11T04:55:23.178Z,10.70
2023-04-11T05:00:28.174Z,10.70
2023-04-11T05:05:30.825Z,10.50
2023-04-11T05:10:33.544Z,10.20
2023-04-11T05:15:37.592Z,10.10
2023-04-11T05:20:40.318Z,10.00
2023-04-11T05:25:42.949Z,10.10
2023-04-11T05:30:47.090Z,10.10
2023-04-11T05:35:49.822Z,10.20
2023-04-11T05:40:52.530Z,10.20
2023-04-11T05:45:56.533Z,10.30
2023-04-11T05:50:59.579Z,10.30
2023-04-11T05:56:02.261Z,10.30
2023-04-11T06:01:07.413Z,10.20
2023-04-11T06:06:10.317Z,10.10
2023-04-11T06:11:13.098Z,9.50
2023-04-11T06:16:19.948Z,9.30
2023-04-11T06:21:22.589Z,9.40
2023-04-11T06:26:25.383Z,9.50
2023-04-11T06:31:29.489Z,9.40
2023-04-11T06:36:32.581Z,9.10
2023-04-11T06:41:36.187Z,9.10
2023-04-11T06:46:40.388Z,9.10
2023-04-11T06:51:42.995Z,9.10
2023-04-11T06:56:45.753Z,9.20
2023-04-11T07:01:50.663Z,9.50
2023-04-11T07:06:53.442Z,9.70
2023-04-11T07:11:56.218Z,9.60
2023-04-11T07:17:01.326Z,9.80
2023-04-11T07:22:05.236Z,9.70
2023-04-11T07:27:10.164Z,9.60
2023-04-11T07:32:25.510Z,9.50
2023-04-11T07:37:30.947Z,9.60
2023-04-11T07:42:33.739Z,9.70
2023-04-11T07:47:37.780Z,9.70
2023-04-11T07:52:40.689Z,9.60
2023-04-11T07:57:43.347Z,9.60
2023-04-11T08:02:54.024Z,9.70
2023-04-11T08:07:59.481Z,9.90
2023-04-11T08:13:12.502Z,9.90
2023-04-11T08:18:21.653Z,9.80
2023-04-11T08:23:25.365Z,10.00
2023-04-11T08:28:28.739Z,10.20
2023-04-11T08:33:37.429Z,10.40
2023-04-11T08:44:36.180Z,10.50
2023-04-11T08:49:50.039Z,10.50
2023-04-11T08:55:08.875Z,10.70
2023-04-11T09:00:46.038Z,10.70
2023-04-11T09:06:40.759Z,10.90
2023-04-11T09:12:14.984Z,11.10
2023-04-11T09:17:23.799Z,11.10
2023-04-11T10:00:47.130Z,13.60
2023-04-11T10:07:25.986Z,15.10
2023-04-11T10:20:02.880Z,16.10
2023-04-11T10:25:53.303Z,17.40
2023-04-11T10:37:59.602Z,17.30
2023-04-11T10:44:16.582Z,23.80
2023-04-11T11:08:42.455Z,17.60
2023-04-11T11:14:16.272Z,14.20
2023-04-11T11:19:37.806Z,11.20
2023-04-11T11:56:14.181Z,14.00
2023-04-11T12:01:55.333Z,11.30
2023-04-11T12:07:15.249Z,10.50
2023-04-11T12:18:48.842Z,9.80
2023-04-11T12:24:07.615Z,11.50
2023-04-11T13:11:43.192Z,25.00
2023-04-11T13:17:02.182Z,27.00
2023-04-11T13:22:04.968Z,27.10
2023-04-11T13:27:09.706Z,25.30
2023-04-11T13:32:12.626Z,23.50
2023-04-11T13:37:15.494Z,20.80
2023-04-11T13:42:21.642Z,18.90
2023-04-11T13:47:25.065Z,18.00
2023-04-11T13:52:28.491Z,17.50
2023-04-11T13:57:32.869Z,18.50
2023-04-11T14:02:39.183Z,17.60
2023-04-11T14:07:42.614Z,15.80
2023-04-11T14:12:51.495Z,14.70
2023-04-11T14:17:55.571Z,14.90
2023-04-11T14:22:58.866Z,18.00
2023-04-11T14:28:03.568Z,17.70
2023-04-11T14:33:06.593Z,17.10
2023-04-11T14:38:09.568Z,18.40
2023-04-11T14:43:16.325Z,19.30
2023-04-11T14:48:22.435Z,19.00
2023-04-11T14:53:28.684Z,18.90
2023-04-11T14:58:36.600Z,16.60
2023-04-11T15:03:41.891Z,14.60
2023-04-11T15:08:47.104Z,13.10
2023-04-11T15:13:52.939Z,12.70
2023-04-11T15:18:56.081Z,12.20
2023-04-11T15:23:59.759Z,11.80
2023-04-11T15:29:04.817Z,11.30
2023-04-11T15:34:08.546Z,11.00
2023-04-11T15:39:13.548Z,10.90
2023-04-11T15:44:17.639Z,11.10
2023-04-11T15:49:20.459Z,11.80
2023-04-11T15:54:23.130Z,12.50
2023-04-11T15:59:27.495Z,13.70
2023-04-11T16:04:30.569Z,14.30
2023-04-11T16:09:33.848Z,14.00
2023-04-11T16:14:38.144Z,13.70
2023-04-11T16:19:41.314Z,13.10
2023-04-11T16:24:45.294Z,12.70
2023-04-11T16:29:49.264Z,12.30
2023-04-11T16:34:54.767Z,12.00
2023-04-11T16:39:57.820Z,12.20
2023-04-11T16:45:01.829Z,13.10
2023-04-11T16:50:05.749Z,13.40
2023-04-11T16:55:09.294Z,13.50
2023-04-11T17:00:16.987Z,13.30
2023-04-11T17:05:19.866Z,12.70
2023-04-11T17:10:22.542Z,12.40
2023-04-11T17:15:26.715Z,13.00
2023-04-11T17:20:29.549Z,12.50
2023-04-11T17:25:32.332Z,11.70
2023-04-11T17:30:36.552Z,11.10
2023-04-11T17:35:39.489Z,10.90
2023-04-11T17:40:42.329Z,10.60
2023-04-11T17:45:48.006Z,10.30
2023-04-11T17:50:52.671Z,10.00
2023-04-11T17:55:55.372Z,9.90
2023-04-11T18:00:59.616Z,9.70
2023-04-11T18:06:02.365Z,9.50
2023-04-11T18:11:05.234Z,9.30
2023-04-11T18:16:10.988Z,9.00
2023-04-11T18:21:16.089Z,8.80
2023-04-11T18:26:24.469Z,8.50
2023-04-11T18:31:36.399Z,8.40
2023-04-11T18:36:56.767Z,8.20
2023-04-11T19:00:18.476Z,9.80
2023-04-11T19:05:25.064Z,9.90
2023-04-11T19:10:28.442Z,9.70
2023-04-11T19:15:32.516Z,9.20
2023-04-11T19:20:36.567Z,8.90
2023-04-11T19:25:40.600Z,8.80
2023-04-11T19:30:44.645Z,8.80
2023-04-11T19:35:47.624Z,8.70
2023-04-11T19:40:50.337Z,8.60
2023-04-11T19:45:55.068Z,8.40
2023-04-11T19:50:57.797Z,8.10
2023-04-11T19:56:00.440Z,7.70
2023-04-11T20:01:04.929Z,7.50
2023-04-11T20:06:09.483Z,7.30
2023-04-11T20:11:15.537Z,7.10
2023-04-11T20:16:22.033Z,7.00
2023-04-11T20:21:24.725Z,7.10
2023-04-11T20:26:27.732Z,6.90
2023-04-11T20:31:31.769Z,6.80
2023-04-11T20:36:36.078Z,6.70
2023-04-11T20:41:40.402Z,6.60
2023-04-11T20:46:45.109Z,6.70
2023-04-11T20:51:47.929Z,6.40
2023-04-11T20:56:52.384Z,6.50
2023-04-11T21:01:56.470Z,6.30
2023-04-11T21:06:59.473Z,5.90
2023-04-11T21:12:02.327Z,5.70
2023-04-11T21:17:07.393Z,6.00
2023-04-11T21:22:10.334Z,5.90
2023-04-11T21:27:13.014Z,5.80
2023-04-11T21:32:17.054Z,5.70
2023-04-11T21:37:19.824Z,5.60
2023-04-11T21:42:22.520Z,5.50
2023-04-11T21:47:26.672Z,5.50
2023-04-11T21:52:29.416Z,5.20
2023-04-11T21:57:33.770Z,5.10
2023-04-11T22:02:38.436Z,4.90
2023-04-11T22:07:47.625Z,4.90
2023-04-11T22:12:50.577Z,4.70
2023-04-11T22:17:56.394Z,4.70
2023-04-11T22:22:59.350Z,4.90
2023-04-11T22:28:02.213Z,4.70
2023-04-11T22:33:06.482Z,4.60
2023-04-11T22:38:09.322Z,4.60
2023-04-11T22:43:12.283Z,4.60
2023-04-11T22:48:16.242Z,4.60
2023-04-11T22:53:18.885Z,4.50
2023-04-11T22:58:21.590Z,4.40
2023-04-11T23:03:25.647Z,4.60
2023-04-11T23:08:28.348Z,4.60
2023-04-11T23:13:31.029Z,4.40
2023-04-11T23:18:35.003Z,4.30
2023-04-11T23:23:38.112Z,4.30
2023-04-11T23:28:40.772Z,4.30
2023-04-11T23:33:45.135Z,4.30
2023-04-11T23:38:47.875Z,4.10
2023-04-11T23:43:50.643Z,4.00
2023-04-11T23:48:55.397Z,3.80
2023-04-11T23:53:58.232Z,3.60
2023-04-11T23:59:01.117Z,3.50
